Time;durP1;ratioP1;P1;durP2;ratioP2;P2;SDS_P1;SDS_P2;PMS_P1;PMS_P2;Temp;Humidity;BMP_temperature;BMP_pressure;BME280_temperature;BME280_humidity;BME280_pressure;Samples;Min_cycle;Max_cycle;Signal;HPM_P1;HPM_P2
2024/03/24 00:02:03;;;;;;;;;;;;;;;22.46;49.00;93680.00;5050619;28;9441;-59
2024/03/24 00:04:29;;;;;;;;;;;;;;;22.51;49.31;93683.91;5035961;28;7102;-59
2024/03/24 00:07:25;;;;;;;;;;;;;;;22.47;49.14;93678.72;5055496;28;7161;-59
2024/03/24 00:10:00;;;;;;;;;;;;;;;22.52;49.23;93683.44;4986149;28;7634;-59
2024/03/24 00:12:41;;;;;;;;;;;;;;;22.50;49.35;93679.72;4973105;28;7409;-60
2024/03/24 00:15:23;;;;;;;;;;;;;;;22.46;48.75;93676.50;4988947;28;7001;-60
2024/03/24 00:17:50;;;;;;;;;;;;;;;22.48;49.16;93669.25;4985002;28;7495;-60
2024/03/24 00:20:19;;;;;;;;;;;;;;;22.51;49.19;93664.75;4988262;28;9101;-61
2024/03/24 00:22:45;;;;;;;;;;;;;;;22.41;48.98;93649.88;4982568;28;7166;-60
2024/03/24 00:25:10;;;;;;;;;;;;;;;22.46;48.75;93654.56;4960560;28;7314;-60
2024/03/24 00:27:36;;;;;;;;;;;;;;;22.49;49.08;93661.75;4968890;28;9316;-60
2024/03/24 00:30:09;;;;;;;;;;;;;;;22.47;49.15;93658.78;4985346;28;7044;-60
2024/03/24 00:33:20;;;;;;;;;;;;;;;22.52;48.78;93668.97;4963024;28;7049;-60
2024/03/24 00:35:46;;;;;;;;;;;;;;;22.50;48.84;93655.03;4958634;28;7039;-60
2024/03/24 00:38:16;;;;;;;;;;;;;;;22.51;49.05;93653.78;4965525;28;9148;-60
2024/03/24 00:40:44;;;;;;;;;;;;;;;22.52;48.80;93652.53;4977797;28;9439;-60
2024/03/24 00:43:19;;;;;;;;;;;;;;;22.47;48.91;93637.63;4977682;28;7144;-60
2024/03/24 00:46:01;;;;;;;;;;;;;;;22.47;48.76;93640.38;4998347;28;8795;-60
2024/03/24 00:48:54;;;;;;;;;;;;;;;22.53;48.76;93651.31;5051072;28;7208;-60
2024/03/24 00:51:33;;;;;;;;;;;;;;;22.52;49.04;93641.59;5036780;28;7260;-60
2024/03/24 00:54:29;;;;;;;;;;;;;;;22.50;48.76;93638.59;5045783;28;9416;-60
2024/03/24 00:57:25;;;;;;;;;;;;;;;22.49;48.91;93631.63;5039074;28;7379;-60
2024/03/24 01:00:17;;;;;;;;;;;;;;;22.52;48.70;93639.59;4973164;28;7803;-61
2024/03/24 01:02:53;;;;;;;;;;;;;;;22.51;48.59;93627.13;4974542;28;7200;-60
2024/03/24 01:05:57;;;;;;;;;;;;;;;22.53;49.06;93626.63;4972239;28;7121;-60
2024/03/24 01:11:51;;;;;;;;;;;;;;;22.54;48.87;93628.09;4936185;29;7491;-59
2024/03/24 01:14:19;;;;;;;;;;;;;;;22.52;48.86;93631.38;4916359;29;9338;-60
2024/03/24 01:17:03;;;;;;;;;;;;;;;22.53;48.62;93630.09;4906017;29;7362;-60
2024/03/24 01:19:29;;;;;;;;;;;;;;;22.52;48.87;93628.63;4912595;29;7038;-60
2024/03/24 01:22:03;;;;;;;;;;;;;;;22.50;48.74;93616.69;4917273;29;7298;-60
2024/03/24 01:24:40;;;;;;;;;;;;;;;22.49;48.80;93620.66;4934935;29;7113;-60
2024/03/24 01:27:33;;;;;;;;;;;;;;;22.55;48.45;93626.13;4919618;29;9035;-61
2024/03/24 01:30:11;;;;;;;;;;;;;;;22.53;48.77;93615.69;4918487;29;9437;-60
2024/03/24 01:32:39;;;;;;;;;;;;;;;22.49;48.46;93618.69;4935098;29;7247;-60
2024/03/24 01:35:54;;;;;;;;;;;;;;;22.53;48.77;93610.91;4917396;29;8991;-60
2024/03/24 01:38:20;;;;;;;;;;;;;;;22.56;48.60;93600.94;4977897;28;7070;-60
2024/03/24 01:40:54;;;;;;;;;;;;;;;22.51;48.65;93596.22;5032441;28;9622;-60
2024/03/24 01:43:31;;;;;;;;;;;;;;;22.53;48.45;93591.72;5016018;28;7235;-60
2024/03/24 01:46:07;;;;;;;;;;;;;;;22.53;48.97;93588.28;5032614;28;7265;-60
2024/03/24 01:48:33;;;;;;;;;;;;;;;22.53;48.68;93582.78;5008615;28;9174;-60
2024/03/24 01:51:03;;;;;;;;;;;;;;;22.54;48.08;93573.31;5010583;28;7036;-60
2024/03/24 01:53:36;;;;;;;;;;;;;;;22.55;48.37;93568.56;5027065;28;7190;-60
2024/03/24 01:56:06;;;;;;;;;;;;;;;22.52;48.50;93562.09;5052225;28;7343;-60
2024/03/24 01:59:05;;;;;;;;;;;;;;;22.53;48.25;93564.34;5013768;28;7202;-60
2024/03/24 02:02:01;;;;;;;;;;;;;;;22.53;48.55;93566.34;4979417;28;7118;-60
2024/03/24 02:04:48;;;;;;;;;;;;;;;22.53;48.75;93563.63;4873002;29;7354;-60
2024/03/24 02:07:17;;;;;;;;;;;;;;;22.44;48.36;93548.22;4859882;29;7119;-60
2024/03/24 02:09:48;;;;;;;;;;;;;;;22.48;48.50;93556.16;4850921;29;9692;-60
2024/03/24 02:12:16;;;;;;;;;;;;;;;22.51;48.74;93555.13;4862867;29;7290;-60
2024/03/24 02:15:16;;;;;;;;;;;;;;;22.51;48.36;93555.13;4862890;29;9107;-59
2024/03/24 02:17:47;;;;;;;;;;;;;;;22.50;48.64;93561.88;4896278;29;9728;-60
2024/03/24 02:20:23;;;;;;;;;;;;;;;22.52;48.51;93565.59;4896882;29;7354;-60
2024/03/24 02:22:59;;;;;;;;;;;;;;;22.51;48.34;93563.34;4896745;29;7374;-60
2024/03/24 02:25:45;;;;;;;;;;;;;;;22.48;48.11;93554.19;4881256;29;9050;-60
2024/03/24 02:28:12;;;;;;;;;;;;;;;22.50;48.64;93556.41;4894412;29;7311;-60
2024/03/24 02:30:57;;;;;;;;;;;;;;;22.47;48.23;93551.94;4896542;29;7407;-60
2024/03/24 02:33:32;;;;;;;;;;;;;;;22.49;48.83;93554.91;4883894;29;7587;-60
2024/03/24 02:36:34;;;;;;;;;;;;;;;22.50;48.63;93557.16;4894612;29;7072;-60
2024/03/24 02:39:00;;;;;;;;;;;;;;;22.52;48.12;93548.41;4953497;29;7046;-60
2024/03/24 02:41:29;;;;;;;;;;;;;;;22.42;48.26;93542.50;4962840;28;7010;-59
2024/03/24 02:43:57;;;;;;;;;;;;;;;22.50;48.53;93553.66;4956502;28;8945;-59
2024/03/24 02:46:48;;;;;;;;;;;;;;;22.50;48.19;93553.66;4947175;29;7266;-59
2024/03/24 02:49:23;;;;;;;;;;;;;;;22.46;48.30;93547.72;4955864;28;9057;-60
2024/03/24 02:52:07;;;;;;;;;;;;;;;22.47;48.49;93538.97;4954908;28;7329;-59
2024/03/24 02:54:35;;;;;;;;;;;;;;;22.49;48.45;93550.16;4965002;28;7336;-59
2024/03/24 02:57:11;;;;;;;;;;;;;;;22.51;48.47;93546.91;4956754;28;6897;-59
2024/03/24 02:59:45;;;;;;;;;;;;;;;22.49;48.30;93541.19;4973030;28;7261;-59
2024/03/24 03:02:11;;;;;;;;;;;;;;;22.49;48.29;93544.69;4956510;28;9455;-59
2024/03/24 03:04:41;;;;;;;;;;;;;;;22.52;48.12;93548.41;4958823;28;8820;-59
2024/03/24 03:07:13;;;;;;;;;;;;;;;22.51;48.21;93544.16;4972610;28;6982;-58
2024/03/24 03:09:42;;;;;;;;;;;;;;;22.51;48.45;93547.66;4956362;28;7064;-58
2024/03/24 03:12:27;;;;;;;;;;;;;;;22.50;48.45;93537.22;4955503;28;8995;-58
2024/03/24 03:15:05;;;;;;;;;;;;;;;22.46;48.43;93525.78;5046605;28;7024;-58
2024/03/24 03:18:00;;;;;;;;;;;;;;;22.50;48.47;93537.22;5056996;28;6965;-58
2024/03/24 03:20:41;;;;;;;;;;;;;;;22.46;48.32;93525.78;4995954;28;9084;-58
2024/03/24 03:23:15;;;;;;;;;;;;;;;22.49;48.59;93539.22;4992765;28;9291;-58
2024/03/24 03:25:46;;;;;;;;;;;;;;;22.45;48.36;93524.28;4973308;28;7149;-58
2024/03/24 03:28:14;;;;;;;;;;;;;;;22.43;48.38;93527.56;4983618;28;7976;-58
2024/03/24 03:30:40;;;;;;;;;;;;;;;22.52;48.12;93534.72;4976014;28;6991;-59
2024/03/24 03:33:10;;;;;;;;;;;;;;;22.51;48.34;93531.22;4975836;28;7017;-58
2024/03/24 03:35:45;;;;;;;;;;;;;;;22.51;48.45;93530.47;4991022;28;9115;-58
2024/03/24 03:38:11;;;;;;;;;;;;;;;22.52;48.68;93534.72;4947048;28;7019;-59
2024/03/24 03:40:37;;;;;;;;;;;;;;;22.49;48.14;93527.50;4992582;28;8991;-59
2024/03/24 03:43:21;;;;;;;;;;;;;;;22.50;48.44;93529.00;4979195;28;7286;-58
2024/03/24 03:45:47;;;;;;;;;;;;;;;22.45;48.58;93518.81;4978711;28;8850;-58
2024/03/24 03:48:44;;;;;;;;;;;;;;;22.50;48.14;93535.22;4995453;28;7280;-58
2024/03/24 03:51:19;;;;;;;;;;;;;;;22.50;48.32;93518.78;4932775;28;9156;-60
2024/03/24 03:54:14;;;;;;;;;;;;;;;22.51;48.01;93519.50;4941611;28;9129;-60
2024/03/24 03:56:51;;;;;;;;;;;;;;;22.52;48.22;93527.25;4974849;28;9100;-60
2024/03/24 03:59:27;;;;;;;;;;;;;;;22.51;48.60;93525.00;5034537;28;7236;-60
2024/03/24 04:02:03;;;;;;;;;;;;;;;22.43;48.23;93507.63;5018105;28;7279;-60
2024/03/24 04:04:45;;;;;;;;;;;;;;;22.43;48.20;93502.91;5017872;28;9478;-60
2024/03/24 04:07:20;;;;;;;;;;;;;;;22.47;48.25;93510.81;5031343;28;6878;-60
2024/03/24 04:09:45;;;;;;;;;;;;;;;22.48;48.55;93509.59;5038242;28;7731;-60
2024/03/24 04:12:33;;;;;;;;;;;;;;;22.49;48.23;93511.81;5022824;28;7371;-60
2024/03/24 04:15:29;;;;;;;;;;;;;;;22.47;48.29;93508.09;5025082;28;7150;-60
2024/03/24 04:18:40;;;;;;;;;;;;;;;22.47;48.34;93508.09;4956234;28;7210;-60
2024/03/24 04:21:22;;;;;;;;;;;;;;;22.47;48.08;93508.09;4921547;29;7317;-60
2024/03/24 04:24:02;;;;;;;;;;;;;;;22.40;48.22;93492.22;4937154;29;9374;-60
2024/03/24 04:26:47;;;;;;;;;;;;;;;22.45;47.96;93511.34;4935505;28;7659;-60
2024/03/24 04:29:22;;;;;;;;;;;;;;;22.40;48.00;93505.94;4912189;29;7137;-60
2024/03/24 04:35:19;;;;;;;;;;;;;;;22.47;48.22;93513.56;4952524;28;7015;-60
2024/03/24 04:37:45;;;;;;;;;;;;;;;22.43;48.19;93508.38;4958121;28;7515;-60
2024/03/24 04:40:11;;;;;;;;;;;;;;;22.44;47.68;93506.38;4962621;28;8942;-60
2024/03/24 04:42:57;;;;;;;;;;;;;;;22.45;48.17;93516.06;4958506;28;7117;-60
2024/03/24 04:45:59;;;;;;;;;;;;;;;22.45;48.17;93516.81;4952745;28;7055;-61
2024/03/24 04:48:25;;;;;;;;;;;;;;;22.43;48.09;93516.59;4917145;29;7293;-60
2024/03/24 04:50:51;;;;;;;;;;;;;;;22.39;48.31;93507.91;4901475;29;7199;-60
2024/03/24 04:53:42;;;;;;;;;;;;;;;22.46;48.02;93514.84;4902127;29;7013;-60
2024/03/24 04:56:17;;;;;;;;;;;;;;;22.45;48.19;93514.09;4901479;29;7058;-60
2024/03/24 04:58:59;;;;;;;;;;;;;;;22.41;48.01;93499.19;4909430;29;7106;-60
2024/03/24 05:01:51;;;;;;;;;;;;;;;22.46;48.00;93512.09;4917511;29;7322;-60
2024/03/24 05:04:46;;;;;;;;;;;;;;;22.45;48.14;93508.59;4905308;29;7526;-60
2024/03/24 05:07:39;;;;;;;;;;;;;;;22.47;47.84;93513.56;4923408;29;8250;-59
2024/03/24 05:10:23;;;;;;;;;;;;;;;22.46;48.15;93507.38;4933844;28;9042;-59
2024/03/24 05:13:04;;;;;;;;;;;;;;;22.41;47.74;93501.91;4952134;28;7059;-60
2024/03/24 05:16:07;;;;;;;;;;;;;;;22.46;48.10;93506.63;4971654;28;8932;-60
2024/03/24 05:18:37;;;;;;;;;;;;;;;22.45;47.33;93511.34;4957221;28;9591;-60
2024/03/24 05:21:16;;;;;;;;;;;;;;;22.42;48.22;93500.69;4955097;28;9200;-60
2024/03/24 05:23:52;;;;;;;;;;;;;;;22.38;47.94;93500.19;5048581;28;7227;-60
2024/03/24 05:26:27;;;;;;;;;;;;;;;22.44;48.07;93509.13;5035374;28;7040;-60
2024/03/24 05:29:07;;;;;;;;;;;;;;;22.40;47.90;93508.66;5034005;28;6998;-60
2024/03/24 05:31:55;;;;;;;;;;;;;;;22.47;48.50;93519.78;5052444;28;7053;-59
2024/03/24 05:34:27;;;;;;;;;;;;;;;22.51;47.99;93514.03;5034192;28;6939;-59
2024/03/24 05:37:05;;;;;;;;;;;;;;;22.53;47.60;93515.00;5050277;28;7141;-60
2024/03/24 05:39:36;;;;;;;;;;;;;;;22.56;47.97;93535.16;5039291;28;7239;-64
2024/03/24 05:42:02;;;;;;;;;;;;;;;22.60;47.70;93519.22;5039433;28;7664;-66
2024/03/24 05:44:29;;;;;;;;;;;;;;;22.63;48.33;93523.69;5050502;28;7314;-64
2024/03/24 05:46:56;;;;;;;;;;;;;;;22.63;48.11;93517.44;5044510;28;7187;-64
2024/03/24 05:49:30;;;;;;;;;;;;;;;22.61;47.44;93517.97;5018323;28;7223;-64
2024/03/24 05:51:58;;;;;;;;;;;;;;;22.66;47.40;93525.41;5053850;28;7041;-64
2024/03/24 05:54:31;;;;;;;;;;;;;;;22.60;47.76;93519.22;5043794;28;7188;-61
2024/03/24 05:56:57;;;;;;;;;;;;;;;22.55;47.22;93519.25;5050228;28;7219;-61
2024/03/24 05:59:24;;;;;;;;;;;;;;;22.55;47.12;93519.25;5047705;28;7139;-61
2024/03/24 06:01:50;;;;;;;;;;;;;;;22.59;47.18;93525.97;5048121;28;7099;-61
2024/03/24 06:04:35;;;;;;;;;;;;;;;22.62;47.52;93535.16;5037686;28;9451;-61
2024/03/24 06:07:10;;;;;;;;;;;;;;;22.59;47.30;93531.44;5038611;28;7235;-61
2024/03/24 06:09:55;;;;;;;;;;;;;;;22.61;47.19;93545.38;5052040;28;7016;-61
2024/03/24 06:12:23;;;;;;;;;;;;;;;22.62;47.55;93548.88;5040374;28;7123;-61
2024/03/24 06:14:56;;;;;;;;;;;;;;;22.62;47.11;93557.09;5041060;28;7662;-60
2024/03/24 06:18:07;;;;;;;;;;;;;;;22.66;47.36;93563.03;5037095;28;6895;-61
2024/03/24 06:21:05;;;;;;;;;;;;;;;22.65;47.73;93584.22;5044228;28;8937;-60
2024/03/24 06:23:57;;;;;;;;;;;;;;;22.64;47.47;93601.91;5020704;28;7534;-61
2024/03/24 06:26:51;;;;;;;;;;;;;;;22.65;47.57;93611.63;4998456;28;8519;-61
2024/03/24 06:29:44;;;;;;;;;;;;;;;22.64;47.76;93626.56;5000507;28;7483;-61
2024/03/24 06:32:11;;;;;;;;;;;;;;;22.64;47.47;93637.53;5014550;28;7361;-61
2024/03/24 06:34:57;;;;;;;;;;;;;;;22.62;47.54;93639.31;5007298;28;7321;-61
2024/03/24 06:37:31;;;;;;;;;;;;;;;22.57;47.79;93640.81;5011590;28;9422;-61
2024/03/24 06:39:59;;;;;;;;;;;;;;;22.63;47.88;93657.22;5009221;28;7334;-61
2024/03/24 06:42:28;;;;;;;;;;;;;;;22.64;48.35;93664.94;5015926;28;7175;-61
2024/03/24 06:44:56;;;;;;;;;;;;;;;22.62;47.93;93667.44;5017879;28;7554;-61
2024/03/24 06:47:56;;;;;;;;;;;;;;;22.64;48.12;93672.44;5014782;28;9009;-61
2024/03/24 06:50:36;;;;;;;;;;;;;;;22.66;47.77;93678.91;5021586;28;7287;-61
2024/03/24 06:53:13;;;;;;;;;;;;;;;22.58;48.31;93677.91;5031054;28;7034;-61
2024/03/24 06:55:41;;;;;;;;;;;;;;;22.66;48.77;93692.59;5009045;28;9068;-61
2024/03/24 06:58:16;;;;;;;;;;;;;;;22.65;48.39;93702.06;5016835;28;7054;-61
2024/03/24 07:01:01;;;;;;;;;;;;;;;22.66;48.39;93692.59;5037443;28;8417;-61
2024/03/24 07:03:29;;;;;;;;;;;;;;;22.59;48.67;93682.19;5042156;28;7270;-61
2024/03/24 07:05:55;;;;;;;;;;;;;;;22.56;46.70;93683.16;5048710;28;6914;-61
2024/03/24 07:08:41;;;;;;;;;;;;;;;22.52;47.33;93686.19;5045559;28;6983;-61
2024/03/24 07:11:33;;;;;;;;;;;;;;;22.50;47.85;93699.63;5051267;28;9296;-60
2024/03/24 07:14:11;;;;;;;;;;;;;;;22.44;47.66;93681.75;4995933;28;7215;-59
2024/03/24 07:16:39;;;;;;;;;;;;;;;22.49;48.07;93697.38;4994979;28;7121;-60
2024/03/24 07:19:18;;;;;;;;;;;;;;;22.52;47.97;93696.38;4989650;28;8081;-60
2024/03/24 07:21:53;;;;;;;;;;;;;;;22.51;47.83;93697.63;4995194;28;7010;-61
2024/03/24 07:24:20;;;;;;;;;;;;;;;22.52;48.09;93708.09;4974949;28;7053;-61
2024/03/24 07:26:58;;;;;;;;;;;;;;;22.51;48.48;93709.34;4976109;28;9197;-61
2024/03/24 07:30:01;;;;;;;;;;;;;;;22.52;48.08;93721.06;4988146;28;7175;-61
2024/03/24 07:33:06;;;;;;;;;;;;;;;22.52;48.65;93707.34;4979904;28;7110;-61
2024/03/24 07:35:48;;;;;;;;;;;;;;;22.52;48.72;93712.81;4974702;28;7244;-61
2024/03/24 07:38:23;;;;;;;;;;;;;;;22.53;48.95;93725.28;4989262;28;7112;-61
2024/03/24 07:40:49;;;;;;;;;;;;;;;22.51;49.02;93722.28;4974892;28;7055;-60
2024/03/24 07:43:15;;;;;;;;;;;;;;;22.49;49.06;93711.84;4978820;28;6856;-60
2024/03/24 07:45:40;;;;;;;;;;;;;;;22.56;49.10;93724.25;4983202;28;7842;-60
2024/03/24 07:48:28;;;;;;;;;;;;;;;22.58;48.66;93716.28;4965619;28;7285;-60
2024/03/24 07:51:03;;;;;;;;;;;;;;;22.57;48.83;93725.75;5014644;28;7364;-60
2024/03/24 07:53:35;;;;;;;;;;;;;;;22.59;49.24;93728.78;5045662;28;7708;-60
2024/03/24 07:56:11;;;;;;;;;;;;;;;22.60;49.30;93733.00;5052455;28;9446;-60
2024/03/24 07:59:25;;;;;;;;;;;;;;;22.58;49.07;93738.19;5047679;28;7011;-60
2024/03/24 08:01:53;;;;;;;;;;;;;;;22.53;49.28;93736.25;5036001;28;6990;-60
2024/03/24 08:04:23;;;;;;;;;;;;;;;22.55;49.47;93725.53;5053017;28;7319;-62
2024/03/24 08:07:04;;;;;;;;;;;;;;;22.65;50.50;93737.69;5043474;28;9471;-62
2024/03/24 08:09:42;;;;;;;;;;;;;;;22.73;51.76;93735.19;5051517;28;7900;-62
2024/03/24 08:12:11;;;;;;;;;;;;;;;23.00;58.40;93756.19;5065988;28;7059;-63
2024/03/24 08:14:46;;;;;;;;;;;;;;;23.36;58.73;93759.72;5056233;28;7173;-63
2024/03/24 08:17:17;;;;;;;;;;;;;;;23.64;58.30;93757.47;5052732;28;7232;-63
2024/03/24 08:19:53;;;;;;;;;;;;;;;23.85;55.70;93755.78;5050309;28;7060;-65
2024/03/24 08:22:21;;;;;;;;;;;;;;;23.98;51.94;93764.88;5037053;28;7030;-62
2024/03/24 08:24:47;;;;;;;;;;;;;;;24.05;52.00;93752.59;5049193;28;7007;-63
2024/03/24 08:27:14;;;;;;;;;;;;;;;24.13;51.10;93759.00;5051645;28;9803;-62
2024/03/24 08:30:25;;;;;;;;;;;;;;;24.20;52.30;93752.94;5041214;28;8730;-61
2024/03/24 08:33:28;;;;;;;;;;;;;;;24.26;53.17;93763.84;5037935;28;7068;-66
2024/03/24 08:36:15;;;;;;;;;;;;;;;24.30;54.87;93756.81;5043309;28;7037;-61
2024/03/24 08:38:50;;;;;;;;;;;;;;;24.45;56.29;93759.13;5045436;28;9060;-61
2024/03/24 08:41:16;;;;;;;;;;;;;;;24.56;55.81;93768.00;5042858;28;7446;-65
2024/03/24 08:43:42;;;;;;;;;;;;;;;24.60;57.10;93751.94;5036730;28;7081;-61
2024/03/24 08:46:13;;;;;;;;;;;;;;;24.73;56.53;93751.28;5047216;28;8359;-63
2024/03/24 08:48:58;;;;;;;;;;;;;;;24.81;50.26;93754.22;5048680;28;6866;-64
2024/03/24 08:51:26;;;;;;;;;;;;;;;24.71;50.96;93746.28;5035042;28;7056;-62
2024/03/24 08:54:11;;;;;;;;;;;;;;;24.70;53.36;93730.31;5044175;28;9322;-60
2024/03/24 08:56:37;;;;;;;;;;;;;;;24.75;54.17;93735.03;5040929;28;7152;-65
2024/03/24 08:59:03;;;;;;;;;;;;;;;24.80;54.34;93736.22;5044199;28;8711;-64
2024/03/24 09:01:29;;;;;;;;;;;;;;;24.81;49.71;93737.72;5042960;28;7038;-64
2024/03/24 09:04:01;;;;;;;;;;;;;;;24.73;47.17;93732.78;5037526;28;9020;-65
2024/03/24 09:06:27;;;;;;;;;;;;;;;24.57;49.12;93731.00;5046074;28;9667;-61
2024/03/24 09:09:00;;;;;;;;;;;;;;;24.14;48.53;93724.03;5041235;28;9049;-60
2024/03/24 09:11:29;;;;;;;;;;;;;;;23.81;48.92;93725.84;5060795;28;8619;-60
2024/03/24 09:14:02;;;;;;;;;;;;;;;23.53;49.72;93721.88;5042441;28;8716;-61
2024/03/24 09:16:27;;;;;;;;;;;;;;;23.39;49.35;93726.50;5052778;28;7225;-60
2024/03/24 09:18:56;;;;;;;;;;;;;;;23.27;50.14;93723.06;5043308;28;9106;-61
2024/03/24 09:21:22;;;;;;;;;;;;;;;23.20;50.42;93731.88;5045200;28;9134;-61
2024/03/24 09:23:49;;;;;;;;;;;;;;;23.14;50.62;93730.41;5050260;28;7443;-60
2024/03/24 09:26:17;;;;;;;;;;;;;;;23.11;50.88;93728.69;5038785;28;9752;-60
2024/03/24 09:28:46;;;;;;;;;;;;;;;23.06;50.78;93730.22;5050608;28;9085;-61
2024/03/24 09:31:13;;;;;;;;;;;;;;;23.01;50.70;93719.28;5045491;28;9356;-59
2024/03/24 09:33:44;;;;;;;;;;;;;;;23.00;50.60;93735.00;5050565;28;7134;-59
2024/03/24 09:36:15;;;;;;;;;;;;;;;22.97;51.20;93746.97;5038892;28;9518;-59
2024/03/24 09:38:47;;;;;;;;;;;;;;;22.96;50.62;93736.53;5062848;28;8605;-59
2024/03/24 09:41:13;;;;;;;;;;;;;;;22.95;50.82;93744.00;5044368;28;9469;-59
2024/03/24 09:43:41;;;;;;;;;;;;;;;22.93;51.15;93746.50;5040920;28;7043;-59
2024/03/24 09:46:08;;;;;;;;;;;;;;;22.95;50.48;93748.72;5048255;28;9480;-59
2024/03/24 09:48:38;;;;;;;;;;;;;;;22.95;50.49;93744.00;5049513;28;8737;-59
2024/03/24 09:51:10;;;;;;;;;;;;;;;22.93;50.68;93732.03;5035996;28;9134;-59
2024/03/24 09:53:38;;;;;;;;;;;;;;;22.94;50.88;93736.28;5046396;28;9388;-59
2024/03/24 09:56:07;;;;;;;;;;;;;;;22.90;50.49;93739.28;5032432;28;9258;-59
2024/03/24 09:58:45;;;;;;;;;;;;;;;22.90;50.66;93731.06;5043032;28;9389;-59
2024/03/24 10:01:11;;;;;;;;;;;;;;;22.88;50.51;93733.56;5050563;28;9059;-59
2024/03/24 10:03:44;;;;;;;;;;;;;;;22.89;50.46;93748.03;5050925;28;9454;-59
2024/03/24 10:06:16;;;;;;;;;;;;;;;22.90;50.69;93746.78;5046549;28;7501;-61
2024/03/24 10:08:43;;;;;;;;;;;;;;;22.89;50.84;93740.56;5047930;28;9284;-59
2024/03/24 10:11:33;;;;;;;;;;;;;;;22.90;50.40;93744.03;5044642;28;9483;-59
2024/03/24 10:14:04;;;;;;;;;;;;;;;22.89;50.62;93748.03;5046595;28;8713;-59
2024/03/24 10:16:31;;;;;;;;;;;;;;;22.90;50.34;93738.56;5050951;28;8709;-59
2024/03/24 10:18:57;;;;;;;;;;;;;;;22.91;50.00;93743.53;5045672;28;9027;-59
2024/03/24 10:21:26;;;;;;;;;;;;;;;22.87;50.44;93737.56;5042422;28;8991;-59
2024/03/24 10:23:52;;;;;;;;;;;;;;;22.90;50.28;93747.50;5035309;28;7530;-59
2024/03/24 10:26:19;;;;;;;;;;;;;;;22.95;50.40;93746.75;5049385;28;7409;-59
2024/03/24 10:28:48;;;;;;;;;;;;;;;23.02;50.54;93742.72;5042910;28;7064;-59
2024/03/24 10:31:15;;;;;;;;;;;;;;;23.05;49.95;93736.22;5040323;28;9893;-59
2024/03/24 10:33:41;;;;;;;;;;;;;;;23.05;50.33;93734.19;5045673;28;8926;-59
2024/03/24 10:36:08;;;;;;;;;;;;;;;23.13;50.41;93737.16;5017964;28;8866;-59
2024/03/24 10:38:39;;;;;;;;;;;;;;;23.20;49.91;93742.09;5060626;28;7249;-59
2024/03/24 10:41:11;;;;;;;;;;;;;;;23.27;50.25;93731.28;5065571;28;9622;-58
2024/03/24 10:43:37;;;;;;;;;;;;;;;23.31;49.90;93735.75;5049531;28;7337;-59
2024/03/24 10:46:07;;;;;;;;;;;;;;;23.37;49.68;93725.50;5033524;28;7390;-59
2024/03/24 10:48:52;;;;;;;;;;;;;;;23.44;50.17;93728.44;5056050;28;9021;-59
2024/03/24 10:51:21;;;;;;;;;;;;;;;23.49;49.61;93718.69;5033101;28;8832;-59
2024/03/24 10:53:51;;;;;;;;;;;;;;;23.54;49.93;93726.09;5038234;28;7226;-59
2024/03/24 10:56:19;;;;;;;;;;;;;;;23.61;49.75;93720.06;5059270;28;9383;-59
2024/03/24 10:58:48;;;;;;;;;;;;;;;23.61;49.23;93720.81;5052529;28;7489;-59
2024/03/24 11:01:35;;;;;;;;;;;;;;;23.69;49.51;93731.94;5052975;28;9638;-59
2024/03/24 11:04:19;;;;;;;;;;;;;;;23.74;49.15;93731.91;5036594;28;9410;-59
2024/03/24 11:07:16;;;;;;;;;;;;;;;23.76;49.45;93723.16;5041804;28;9046;-58
2024/03/24 11:09:43;;;;;;;;;;;;;;;23.77;48.81;93727.41;4992536;28;9053;-59
2024/03/24 11:12:13;;;;;;;;;;;;;;;23.81;48.48;93727.84;4992740;28;7030;-59
2024/03/24 11:14:55;;;;;;;;;;;;;;;23.82;49.07;93721.09;4989183;28;9369;-59
2024/03/24 11:17:42;;;;;;;;;;;;;;;23.83;49.13;93715.09;4995352;28;9543;-59
2024/03/24 11:20:17;;;;;;;;;;;;;;;23.84;48.38;93715.81;4982031;28;8952;-60
2024/03/24 11:22:47;;;;;;;;;;;;;;;23.85;48.75;93707.09;5008265;28;9145;-59
2024/03/24 11:25:20;;;;;;;;;;;;;;;23.86;48.94;93716.81;4995646;28;7029;-59
2024/03/24 11:28:03;;;;;;;;;;;;;;;23.92;48.28;93703.03;4995697;28;8966;-59
2024/03/24 11:30:30;;;;;;;;;;;;;;;23.90;48.69;93705.53;4988839;28;6966;-59
2024/03/24 11:33:12;;;;;;;;;;;;;;;23.97;48.57;93710.44;4992554;28;8874;-59
2024/03/24 11:35:54;;;;;;;;;;;;;;;23.96;48.58;93714.47;4992006;28;9435;-59
2024/03/24 11:38:37;;;;;;;;;;;;;;;23.98;48.65;93709.94;4982944;28;9459;-60
2024/03/24 11:41:06;;;;;;;;;;;;;;;23.97;48.31;93702.19;4979706;28;9092;-59
2024/03/24 11:43:35;;;;;;;;;;;;;;;24.02;48.49;93695.91;4988129;28;7094;-59
2024/03/24 11:46:09;;;;;;;;;;;;;;;24.02;47.79;93698.66;5009494;28;9576;-59
2024/03/24 11:48:38;;;;;;;;;;;;;;;24.06;47.82;93690.16;5060989;28;7251;-59
2024/03/24 11:51:20;;;;;;;;;;;;;;;24.10;48.16;93677.59;5052686;28;7230;-59
2024/03/24 11:53:52;;;;;;;;;;;;;;;24.14;48.12;93686.28;5052376;28;9187;-59
2024/03/24 11:56:24;;;;;;;;;;;;;;;24.16;48.67;93683.81;5045073;28;7044;-59
2024/03/24 11:58:55;;;;;;;;;;;;;;;24.17;48.16;93677.03;5035329;28;7376;-59
2024/03/24 12:01:23;;;;;;;;;;;;;;;24.20;47.56;93681.50;5035672;28;9155;-59
2024/03/24 12:03:53;;;;;;;;;;;;;;;24.24;47.53;93681.94;5054077;28;7242;-59
2024/03/24 12:06:20;;;;;;;;;;;;;;;24.29;47.08;93683.88;5042630;28;9117;-59
2024/03/24 12:08:49;;;;;;;;;;;;;;;24.32;47.51;93682.84;5047490;28;9321;-59
2024/03/24 12:11:15;;;;;;;;;;;;;;;24.36;47.17;93672.28;5047077;28;9075;-59
2024/03/24 12:14:08;;;;;;;;;;;;;;;24.41;46.81;93671.47;5048067;28;9315;-59
2024/03/24 12:17:05;;;;;;;;;;;;;;;24.41;46.92;93665.97;5014192;28;9821;-59
2024/03/24 12:19:41;;;;;;;;;;;;;;;24.51;46.97;93666.34;4988149;28;9424;-59
2024/03/24 12:22:08;;;;;;;;;;;;;;;24.51;47.38;93669.81;4990882;28;9438;-59
2024/03/24 12:24:39;;;;;;;;;;;;;;;24.56;47.10;93665.50;4987999;28;8660;-60
2024/03/24 12:27:08;;;;;;;;;;;;;;;24.57;47.31;93667.00;4983271;28;7294;-60
2024/03/24 12:29:36;;;;;;;;;;;;;;;24.59;46.66;93672.72;5006199;28;9103;-60
2024/03/24 12:32:02;;;;;;;;;;;;;;;24.59;47.21;93667.97;4994235;28;8627;-60
2024/03/24 12:34:29;;;;;;;;;;;;;;;24.60;46.76;93685.94;4992806;28;9474;-60
2024/03/24 12:36:55;;;;;;;;;;;;;;;24.62;46.82;93686.16;4983913;28;8611;-59
2024/03/24 12:39:21;;;;;;;;;;;;;;;24.58;46.65;93669.25;5003984;28;8802;-59
2024/03/24 12:41:47;;;;;;;;;;;;;;;24.62;46.40;93661.44;5011130;28;9274;-60
2024/03/24 12:44:21;;;;;;;;;;;;;;;24.61;46.21;93661.97;4993091;28;9519;-60
2024/03/24 12:46:54;;;;;;;;;;;;;;;24.62;46.42;93666.22;5004007;28;9043;-60
2024/03/24 12:49:31;;;;;;;;;;;;;;;24.61;46.58;93661.97;4996332;28;8694;-60
2024/03/24 12:51:57;;;;;;;;;;;;;;;24.63;46.22;93662.94;4995856;28;8924;-60
2024/03/24 12:54:27;;;;;;;;;;;;;;;24.63;45.83;93665.69;5037218;28;8712;-60
2024/03/24 12:56:53;;;;;;;;;;;;;;;24.63;46.25;93651.94;5047565;28;7040;-59
2024/03/24 12:59:21;;;;;;;;;;;;;;;24.64;46.64;93653.41;5068452;28;8774;-60
2024/03/24 13:01:48;;;;;;;;;;;;;;;24.63;46.08;93651.94;5049215;28;9030;-61
2024/03/24 13:04:20;;;;;;;;;;;;;;;24.61;46.11;93648.97;5052770;28;9758;-61
2024/03/24 13:06:56;;;;;;;;;;;;;;;24.62;46.65;93655.94;5037141;28;9148;-61
2024/03/24 13:09:28;;;;;;;;;;;;;;;24.59;46.28;93653.50;5047489;28;9205;-61
2024/03/24 13:11:55;;;;;;;;;;;;;;;24.59;46.23;93659.75;5050769;28;9651;-61
2024/03/24 13:14:28;;;;;;;;;;;;;;;24.62;46.77;93668.97;5050954;28;9115;-61
2024/03/24 13:17:17;;;;;;;;;;;;;;;24.60;46.56;93677.69;5049917;28;9214;-61
2024/03/24 13:20:05;;;;;;;;;;;;;;;24.62;46.11;93688.19;5053226;28;9018;-61
2024/03/24 13:22:36;;;;;;;;;;;;;;;24.61;46.47;93679.19;5034570;28;8867;-61
2024/03/24 13:25:10;;;;;;;;;;;;;;;24.61;46.10;93672.97;5036903;28;9009;-61
2024/03/24 13:27:47;;;;;;;;;;;;;;;24.62;46.66;93674.44;5046059;28;8674;-61
2024/03/24 13:30:13;;;;;;;;;;;;;;;24.61;46.07;93659.97;5046399;28;9097;-61
2024/03/24 13:32:40;;;;;;;;;;;;;;;24.60;46.52;93654.97;5033709;28;9551;-61
2024/03/24 13:35:10;;;;;;;;;;;;;;;24.63;46.24;93651.94;5034228;28;9064;-61
2024/03/24 13:38:21;;;;;;;;;;;;;;;24.62;45.76;93639.44;5047136;28;8248;-61
2024/03/24 13:41:16;;;;;;;;;;;;;;;24.61;46.87;93637.97;5046552;28;10005;-60
2024/03/24 13:44:03;;;;;;;;;;;;;;;24.62;46.53;93639.44;5059685;28;9371;-61
2024/03/24 13:46:59;;;;;;;;;;;;;;;24.62;46.44;93636.69;5047861;28;9352;-61
2024/03/24 13:49:30;;;;;;;;;;;;;;;24.63;46.58;93623.69;5049531;28;9764;-61
2024/03/24 13:52:06;;;;;;;;;;;;;;;24.63;47.00;93635.44;5045676;28;9451;-62